createdAt,value
2023-02-06T00:00:48.804Z,47.63
2023-02-06T00:03:15.997Z,40.40
2023-02-06T00:05:43.294Z,44.00
2023-02-06T00:08:10.517Z,43.70
2023-02-06T00:10:37.704Z,43.53
2023-02-06T00:13:04.838Z,39.97
2023-02-06T00:15:32.034Z,42.57
2023-02-06T00:17:59.169Z,42.03
2023-02-06T00:20:26.290Z,40.73
2023-02-06T00:22:53.463Z,44.90
2023-02-06T00:25:20.581Z,43.77
2023-02-06T00:27:47.728Z,43.33
2023-02-06T00:30:15.011Z,43.50
2023-02-06T00:32:42.245Z,41.67
2023-02-06T00:35:09.369Z,48.23
2023-02-06T00:37:36.507Z,41.37
2023-02-06T00:40:03.667Z,44.07
2023-02-06T00:42:30.800Z,41.73
2023-02-06T00:44:57.933Z,45.17
2023-02-06T00:47:25.063Z,41.00
2023-02-06T00:49:52.186Z,45.23
2023-02-06T00:52:19.629Z,43.10
2023-02-06T00:54:46.754Z,41.60
2023-02-06T00:57:13.876Z,47.13
2023-02-06T00:59:40.990Z,45.93
2023-02-06T01:02:08.117Z,52.80
2023-02-06T01:04:35.307Z,52.03
2023-02-06T01:07:02.721Z,50.50
2023-02-06T01:09:29.862Z,43.03
2023-02-06T01:11:57.015Z,41.47
2023-02-06T01:14:24.210Z,39.53
2023-02-06T01:16:51.323Z,41.47
2023-02-06T01:19:18.502Z,45.53
2023-02-06T01:21:45.650Z,42.43
2023-02-06T01:24:12.768Z,42.23
2023-02-06T01:26:39.872Z,39.43
2023-02-06T01:29:07.025Z,41.30
2023-02-06T01:31:34.292Z,36.60
2023-02-06T01:34:01.598Z,44.50
2023-02-06T01:36:29.338Z,43.77
2023-02-06T01:38:56.475Z,45.10
2023-02-06T01:41:24.183Z,42.20
2023-02-06T01:44:26.824Z,43.37
2023-02-06T01:46:55.948Z,42.30
2023-02-06T01:49:25.625Z,46.20
2023-02-06T01:51:54.865Z,48.20
2023-02-06T01:54:22.074Z,38.27
2023-02-06T01:56:52.125Z,42.50
2023-02-06T01:59:20.124Z,40.23
2023-02-06T02:01:47.682Z,40.87
2023-02-06T02:04:19.737Z,39.87
2023-02-06T02:06:56.231Z,39.43
2023-02-06T02:09:23.377Z,41.93
2023-02-06T02:11:50.510Z,39.93
2023-02-06T02:14:17.904Z,42.43
2023-02-06T02:16:47.738Z,41.87
2023-02-06T02:19:29.934Z,44.97
2023-02-06T02:22:15.681Z,39.63
2023-02-06T02:25:00.579Z,41.33
2023-02-06T02:27:34.810Z,40.40
2023-02-06T02:30:07.856Z,37.83
2023-02-06T02:32:45.129Z,41.77
2023-02-06T02:35:19.531Z,39.93
2023-02-06T02:38:05.644Z,41.33
2023-02-06T02:40:50.997Z,41.23
2023-02-06T02:43:23.275Z,38.30
2023-02-06T02:45:53.747Z,41.17
2023-02-06T02:48:24.521Z,39.23
2023-02-06T02:50:53.038Z,43.00
2023-02-06T02:53:20.219Z,39.47
2023-02-06T02:55:47.415Z,41.37
2023-02-06T02:58:17.228Z,38.83
2023-02-06T03:00:46.084Z,39.60
2023-02-06T03:03:14.801Z,37.53
2023-02-06T03:05:48.811Z,40.50
2023-02-06T03:08:22.044Z,43.60
2023-02-06T03:10:56.527Z,38.80
2023-02-06T03:13:29.823Z,37.37
2023-02-06T03:16:05.674Z,40.47
2023-02-06T03:18:40.376Z,39.30
2023-02-06T03:21:09.979Z,40.87
2023-02-06T03:23:39.420Z,42.63
2023-02-06T03:26:08.587Z,41.93
2023-02-06T03:28:37.384Z,40.03
2023-02-06T03:31:06.950Z,41.07
2023-02-06T03:33:40.887Z,41.07
2023-02-06T03:36:11.133Z,39.50
2023-02-06T03:38:38.298Z,40.27
2023-02-06T03:41:06.177Z,43.13
2023-02-06T03:43:33.541Z,39.13
2023-02-06T03:46:02.265Z,41.67
2023-02-06T03:48:32.729Z,42.03
2023-02-06T03:51:02.180Z,40.30
2023-02-06T03:53:29.909Z,39.07
2023-02-06T03:55:59.641Z,40.53
2023-02-06T03:58:26.813Z,41.73
2023-02-06T04:00:54.138Z,44.50
2023-02-06T04:03:22.896Z,37.43
2023-02-06T04:05:50.040Z,35.80
2023-02-06T04:08:17.213Z,39.07
2023-02-06T04:10:44.363Z,36.07
2023-02-06T04:13:11.640Z,38.50
2023-02-06T04:15:39.053Z,36.03
2023-02-06T04:18:06.321Z,41.13
2023-02-06T04:20:33.493Z,35.70
2023-02-06T04:23:00.659Z,36.90
2023-02-06T04:25:27.862Z,39.97
2023-02-06T04:27:55.171Z,38.37
2023-02-06T04:30:22.436Z,42.70
2023-02-06T04:32:49.606Z,41.33
2023-02-06T04:35:16.793Z,44.83
2023-02-06T04:37:43.913Z,42.53
2023-02-06T04:40:11.394Z,41.73
2023-02-06T04:42:38.605Z,42.97
2023-02-06T04:45:05.941Z,39.90
2023-02-06T04:47:33.138Z,41.37
2023-02-06T04:50:00.274Z,42.83
2023-02-06T04:52:27.393Z,40.53
2023-02-06T04:54:54.545Z,41.83
2023-02-06T04:57:21.760Z,39.10
2023-02-06T04:59:49.200Z,40.00
2023-02-06T05:02:16.360Z,46.60
2023-02-06T05:04:43.533Z,39.50
2023-02-06T05:07:10.691Z,40.93
2023-02-06T05:09:37.815Z,45.87
2023-02-06T05:12:05.126Z,44.03
2023-02-06T05:14:32.266Z,43.87
2023-02-06T05:16:59.421Z,50.40
2023-02-06T05:19:26.527Z,45.40
2023-02-06T05:21:53.698Z,50.53
2023-02-06T05:24:20.867Z,52.63
2023-02-06T05:26:47.972Z,51.17
2023-02-06T05:29:15.086Z,56.23
2023-02-06T05:31:42.295Z,56.23
2023-02-06T05:34:10.244Z,58.87
2023-02-06T05:36:37.485Z,71.90
2023-02-06T05:39:04.766Z,58.97
2023-02-06T05:41:31.926Z,56.60
2023-02-06T05:43:59.058Z,58.63
2023-02-06T05:46:26.278Z,58.90
2023-02-06T05:48:53.455Z,57.47
2023-02-06T05:51:20.735Z,57.63
2023-02-06T05:53:47.971Z,62.60
2023-02-06T05:56:15.121Z,53.57
2023-02-06T05:58:42.270Z,56.20
2023-02-06T06:01:10.803Z,52.30
2023-02-06T06:03:38.600Z,56.47
2023-02-06T06:06:06.383Z,56.70
2023-02-06T06:08:33.627Z,55.67
2023-02-06T06:11:02.675Z,54.47
2023-02-06T06:13:30.278Z,55.13
2023-02-06T06:15:57.516Z,58.00
2023-02-06T06:18:24.730Z,60.43
2023-02-06T06:20:51.890Z,60.87
2023-02-06T06:23:19.044Z,58.10
2023-02-06T06:25:46.970Z,57.87
2023-02-06T06:28:14.241Z,56.43
2023-02-06T06:30:41.426Z,58.63
2023-02-06T06:33:08.581Z,52.93
2023-02-06T06:35:35.952Z,58.37
2023-02-06T06:38:03.298Z,55.27
2023-02-06T06:40:30.405Z,58.63
2023-02-06T06:42:57.581Z,62.50
2023-02-06T06:45:24.736Z,63.27
2023-02-06T06:47:52.086Z,61.53
2023-02-06T06:50:19.314Z,57.17
2023-02-06T06:52:46.449Z,57.60
2023-02-06T06:55:13.571Z,54.43
2023-02-06T06:57:40.716Z,66.67
2023-02-06T07:00:09.251Z,62.87
2023-02-06T07:02:36.363Z,80.47
2023-02-06T07:05:04.001Z,76.17
2023-02-06T07:07:31.132Z,60.80
2023-02-06T07:09:59.728Z,57.37
2023-02-06T07:12:27.279Z,51.80
2023-02-06T07:14:54.412Z,58.47
2023-02-06T07:17:21.548Z,53.70
2023-02-06T07:19:51.455Z,60.07
2023-02-06T07:22:19.305Z,52.83
2023-02-06T07:24:46.487Z,66.23
2023-02-06T07:27:13.715Z,61.10
2023-02-06T07:29:40.854Z,51.63
2023-02-06T07:32:08.057Z,51.23
2023-02-06T07:34:36.135Z,49.77
2023-02-06T07:37:03.756Z,50.47
2023-02-06T07:39:31.125Z,45.50
2023-02-06T07:41:58.447Z,51.10
2023-02-06T07:44:25.615Z,56.30
2023-02-06T07:46:52.903Z,59.40
2023-02-06T07:49:20.042Z,53.33
2023-02-06T07:51:47.405Z,51.60
2023-02-06T07:54:14.546Z,46.03
2023-02-06T07:56:41.729Z,45.47
2023-02-06T07:59:08.878Z,43.73
2023-02-06T08:01:36.095Z,45.43
2023-02-06T08:04:03.690Z,45.47
2023-02-06T08:06:31.149Z,46.00
2023-02-06T08:08:58.264Z,46.00
2023-02-06T08:11:27.763Z,44.17
2023-02-06T08:13:54.876Z,39.67
2023-02-06T08:16:22.927Z,39.80
2023-02-06T08:18:50.081Z,42.10
2023-02-06T08:21:18.575Z,39.13
2023-02-06T08:23:45.839Z,39.00
2023-02-06T08:26:14.422Z,39.57
2023-02-06T08:28:42.427Z,40.00
2023-02-06T08:31:14.349Z,40.60
2023-02-06T08:33:41.581Z,38.37
2023-02-06T08:36:10.510Z,42.17
2023-02-06T08:38:37.727Z,40.97
2023-02-06T08:41:05.209Z,38.53
2023-02-06T08:43:33.227Z,39.47
2023-02-06T08:46:00.513Z,39.13
2023-02-06T08:48:28.475Z,37.57
2023-02-06T08:51:02.762Z,42.23
2023-02-06T08:53:29.996Z,41.73
2023-02-06T08:56:01.673Z,37.90
2023-02-06T08:58:28.931Z,34.23
2023-02-06T09:00:56.118Z,42.33
2023-02-06T09:03:23.326Z,34.23
2023-02-06T09:05:51.583Z,37.07
2023-02-06T09:08:19.804Z,39.40
2023-02-06T09:10:47.159Z,35.37
2023-02-06T09:13:14.280Z,31.53
2023-02-06T09:15:43.237Z,35.07
2023-02-06T09:18:10.520Z,29.90
2023-02-06T09:20:37.636Z,29.87
2023-02-06T09:23:04.750Z,24.90
2023-02-06T09:25:31.861Z,25.93
2023-02-06T09:27:59.004Z,25.93
2023-02-06T09:30:26.214Z,23.17
2023-02-06T09:32:53.361Z,21.70
2023-02-06T09:35:20.485Z,22.83
2023-02-06T09:37:47.960Z,20.37
2023-02-06T09:40:17.142Z,22.80
2023-02-06T09:42:44.552Z,21.40
2023-02-06T09:45:17.581Z,22.33
2023-02-06T09:47:47.573Z,20.07
2023-02-06T09:50:17.830Z,20.73
2023-02-06T09:52:44.949Z,20.93
2023-02-06T09:55:18.066Z,19.43
2023-02-06T09:58:03.623Z,20.50
2023-02-06T10:00:42.784Z,19.07
2023-02-06T10:03:22.392Z,21.37
2023-02-06T10:05:49.512Z,19.40
2023-02-06T10:08:28.593Z,22.20
2023-02-06T10:10:56.894Z,16.97
2023-02-06T10:13:31.109Z,17.50
2023-02-06T10:16:05.457Z,19.77
2023-02-06T10:18:42.606Z,15.57
2023-02-06T10:21:25.972Z,19.57
2023-02-06T10:23:59.033Z,19.73
2023-02-06T10:26:26.168Z,19.77
2023-02-06T10:28:55.998Z,15.17
2023-02-06T10:31:26.046Z,19.47
2023-02-06T10:34:16.082Z,21.13
2023-02-06T10:36:52.305Z,22.97
2023-02-06T10:39:31.389Z,22.47
2023-02-06T10:42:10.519Z,17.60
2023-02-06T10:44:53.018Z,16.57
2023-02-06T10:47:32.929Z,19.87
2023-02-06T10:50:05.600Z,18.63
2023-02-06T10:52:34.706Z,19.40
2023-02-06T10:55:04.156Z,17.40
2023-02-06T10:57:32.191Z,16.97
2023-02-06T11:00:01.199Z,17.47
2023-02-06T11:02:46.283Z,14.20
2023-02-06T11:05:16.844Z,15.67
2023-02-06T11:07:48.176Z,16.03
2023-02-06T11:10:17.291Z,18.40
2023-02-06T11:12:51.308Z,18.13
2023-02-06T11:15:26.273Z,14.67
2023-02-06T11:17:54.233Z,14.87
2023-02-06T11:20:26.639Z,14.63
2023-02-06T11:22:53.990Z,15.07
2023-02-06T11:25:31.817Z,13.87
2023-02-06T11:27:59.304Z,14.00
2023-02-06T11:30:37.521Z,13.53
2023-02-06T11:33:25.089Z,15.77
2023-02-06T11:35:54.258Z,12.57
2023-02-06T11:38:22.861Z,12.30
2023-02-06T11:40:57.624Z,13.47
2023-02-06T11:43:25.951Z,15.97
2023-02-06T11:46:06.754Z,15.10
2023-02-06T11:48:33.866Z,16.57
2023-02-06T11:51:01.269Z,14.60
2023-02-06T11:53:28.569Z,15.23
2023-02-06T11:55:59.948Z,12.43
2023-02-06T11:58:29.502Z,14.77
2023-02-06T12:00:59.243Z,14.57
2023-02-06T12:03:31.109Z,11.03
2023-02-06T12:06:04.362Z,11.43
2023-02-06T12:08:41.270Z,13.53
2023-02-06T12:11:13.401Z,10.77
2023-02-06T12:13:43.734Z,12.50
2023-02-06T12:16:13.968Z,11.20
2023-02-06T12:18:43.881Z,12.53
2023-02-06T12:21:15.828Z,13.37
2023-02-06T12:23:48.974Z,12.47
2023-02-06T12:26:18.854Z,12.87
2023-02-06T12:29:06.117Z,11.07
2023-02-06T12:31:41.951Z,9.30
2023-02-06T12:34:14.624Z,10.77
2023-02-06T12:37:00.113Z,11.53
2023-02-06T12:39:30.868Z,10.83
2023-02-06T12:42:13.607Z,10.70
2023-02-06T12:44:47.106Z,10.97
2023-02-06T12:47:32.693Z,10.10
2023-02-06T12:50:02.577Z,11.00
2023-02-06T12:52:32.456Z,10.20
2023-02-06T12:55:06.242Z,10.33
2023-02-06T12:57:34.567Z,11.87
2023-02-06T13:00:22.196Z,10.97
2023-02-06T13:02:49.362Z,13.43
2023-02-06T13:05:25.654Z,11.87
2023-02-06T13:07:53.527Z,9.13
2023-02-06T13:10:22.317Z,9.33
2023-02-06T13:12:56.528Z,10.17
2023-02-06T13:15:24.968Z,8.43
2023-02-06T13:17:52.598Z,10.83
2023-02-06T13:20:20.632Z,10.53
2023-02-06T13:22:50.924Z,9.90
2023-02-06T13:25:30.228Z,11.20
2023-02-06T13:27:57.393Z,9.53
2023-02-06T13:30:24.584Z,9.60
2023-02-06T13:32:53.268Z,12.20
2023-02-06T13:35:22.584Z,12.17
2023-02-06T13:37:50.814Z,17.23
2023-02-06T13:40:23.856Z,11.47
2023-02-06T13:42:57.111Z,10.10
2023-02-06T13:45:26.923Z,11.57
2023-02-06T13:47:54.070Z,10.80
2023-02-06T13:50:44.076Z,11.43
2023-02-06T13:53:11.176Z,11.17
2023-02-06T13:55:44.175Z,11.57
2023-02-06T13:58:11.313Z,12.03
2023-02-06T14:00:43.386Z,12.23
2023-02-06T14:03:14.744Z,14.10
2023-02-06T14:05:49.317Z,11.07
2023-02-06T14:08:25.268Z,10.00
2023-02-06T14:11:25.351Z,6.87
2023-02-06T14:14:14.592Z,7.87
2023-02-06T14:16:41.750Z,8.67
2023-02-06T14:19:27.572Z,6.33
2023-02-06T14:22:04.119Z,6.23
2023-02-06T14:24:37.006Z,6.93
2023-02-06T14:27:24.456Z,7.90
2023-02-06T14:30:10.476Z,10.77
2023-02-06T14:32:43.674Z,8.43
2023-02-06T14:35:16.833Z,8.63
2023-02-06T14:37:57.145Z,7.27
2023-02-06T14:40:26.654Z,6.80
2023-02-06T14:43:05.262Z,7.03
2023-02-06T14:45:42.518Z,7.70
2023-02-06T14:48:39.467Z,8.80
2023-02-06T14:51:07.226Z,7.27
2023-02-06T14:53:38.526Z,10.53
2023-02-06T14:56:15.743Z,8.80
2023-02-06T14:58:46.713Z,7.67
2023-02-06T15:01:20.498Z,8.93
2023-02-06T15:03:48.841Z,11.13
2023-02-06T15:06:26.297Z,10.80
2023-02-06T15:08:53.421Z,12.30
2023-02-06T15:11:22.638Z,10.80
2023-02-06T15:13:53.757Z,9.13
2023-02-06T15:16:21.130Z,10.47
2023-02-06T15:18:48.257Z,9.33
2023-02-06T15:21:16.926Z,11.40
2023-02-06T15:23:46.883Z,9.67
2023-02-06T15:26:32.141Z,9.77
2023-02-06T15:29:00.735Z,12.13
2023-02-06T15:31:28.456Z,8.50
2023-02-06T15:33:57.458Z,9.23
2023-02-06T15:36:26.105Z,9.63
2023-02-06T15:38:53.424Z,7.73
2023-02-06T15:41:20.816Z,8.13
2023-02-06T15:43:48.344Z,9.70
2023-02-06T15:46:15.929Z,8.57
2023-02-06T15:48:49.841Z,7.87
2023-02-06T15:51:20.211Z,8.70
2023-02-06T15:53:48.724Z,8.47
2023-02-06T15:56:21.834Z,8.37
2023-02-06T15:58:50.196Z,10.20
2023-02-06T16:01:19.318Z,7.90
2023-02-06T16:03:49.918Z,8.93
2023-02-06T16:06:17.868Z,7.67
2023-02-06T16:08:53.143Z,9.33
2023-02-06T16:11:38.870Z,8.37
2023-02-06T16:14:06.841Z,9.53
2023-02-06T16:16:34.084Z,8.00
2023-02-06T16:19:01.316Z,9.13
2023-02-06T16:21:28.470Z,11.10
2023-02-06T16:23:56.869Z,10.83
2023-02-06T16:26:25.552Z,8.73
2023-02-06T16:28:58.454Z,9.43
2023-02-06T16:31:29.997Z,9.77
2023-02-06T16:34:03.122Z,10.60
2023-02-06T16:36:32.052Z,8.97
2023-02-06T16:39:04.147Z,10.13
2023-02-06T16:41:39.737Z,9.97
2023-02-06T16:44:14.726Z,11.37
2023-02-06T16:46:42.318Z,11.57
2023-02-06T16:49:13.582Z,9.70
2023-02-06T16:51:41.716Z,11.97
2023-02-06T16:54:09.708Z,11.77
2023-02-06T16:56:38.798Z,12.23
2023-02-06T16:59:06.022Z,10.87
2023-02-06T17:01:33.354Z,10.47
2023-02-06T17:04:00.502Z,11.10
2023-02-06T17:06:28.911Z,11.90
2023-02-06T17:09:03.292Z,12.27
2023-02-06T17:11:33.911Z,14.33
2023-02-06T17:14:01.074Z,13.17
2023-02-06T17:16:28.814Z,11.97
2023-02-06T17:18:56.238Z,12.90
2023-02-06T17:21:24.351Z,12.70
2023-02-06T17:23:52.013Z,12.43
2023-02-06T17:26:21.265Z,14.40
2023-02-06T17:28:49.001Z,13.10
2023-02-06T17:31:16.318Z,17.20
2023-02-06T17:33:43.472Z,17.53
2023-02-06T17:36:15.133Z,15.77
2023-02-06T17:38:42.272Z,15.50
2023-02-06T17:41:09.416Z,13.63
2023-02-06T17:43:37.444Z,15.33
2023-02-06T17:46:05.606Z,22.33
2023-02-06T17:48:36.341Z,34.17
2023-02-06T17:51:03.739Z,15.77
2023-02-06T17:53:30.849Z,14.03
2023-02-06T17:55:58.021Z,13.03
2023-02-06T17:58:25.159Z,13.03
2023-02-06T18:00:52.315Z,17.83
2023-02-06T18:03:19.828Z,14.23
2023-02-06T18:05:47.178Z,12.13
2023-02-06T18:08:15.540Z,12.40
2023-02-06T18:10:42.669Z,13.13
2023-02-06T18:13:09.800Z,13.03
2023-02-06T18:15:36.927Z,11.30
2023-02-06T18:18:04.938Z,13.87
2023-02-06T18:20:32.291Z,13.30
2023-02-06T18:22:59.489Z,15.13
2023-02-06T18:25:26.615Z,14.83
2023-02-06T18:27:53.812Z,12.17
2023-02-06T18:30:21.055Z,11.50
2023-02-06T18:32:48.278Z,13.93
2023-02-06T18:35:16.435Z,14.43
2023-02-06T18:37:43.804Z,13.13
2023-02-06T18:40:11.576Z,12.20
2023-02-06T18:42:50.829Z,17.60
2023-02-06T18:45:19.101Z,12.20
2023-02-06T18:47:46.388Z,10.03
2023-02-06T18:50:13.976Z,14.03
2023-02-06T18:52:41.163Z,11.33
2023-02-06T18:55:08.686Z,12.43
2023-02-06T18:57:36.553Z,13.13
2023-02-06T19:00:05.720Z,12.87
2023-02-06T19:02:33.086Z,12.17
2023-02-06T19:05:00.356Z,13.00
2023-02-06T19:07:27.791Z,15.47
2023-02-06T19:09:58.848Z,10.93
2023-02-06T19:12:29.689Z,11.57
2023-02-06T19:14:57.703Z,9.73
2023-02-06T19:17:25.515Z,9.90
2023-02-06T19:19:52.964Z,11.77
2023-02-06T19:22:20.207Z,12.60
2023-02-06T19:24:47.402Z,10.50
2023-02-06T19:27:14.657Z,9.77
2023-02-06T19:29:42.205Z,10.40
2023-02-06T19:32:09.735Z,9.17
2023-02-06T19:34:38.203Z,9.23
2023-02-06T19:37:06.089Z,8.87
2023-02-06T19:39:34.403Z,11.33
2023-02-06T19:42:02.000Z,9.30
2023-02-06T19:44:29.189Z,10.07
2023-02-06T19:46:56.798Z,11.33
2023-02-06T19:49:24.106Z,12.60
2023-02-06T19:51:51.274Z,11.23
2023-02-06T19:54:18.411Z,14.77
2023-02-06T19:56:47.175Z,13.97
2023-02-06T19:59:40.598Z,13.27
2023-02-06T20:02:07.717Z,10.63
2023-02-06T20:04:36.023Z,12.60
2023-02-06T20:07:03.269Z,10.47
2023-02-06T20:09:30.905Z,12.23
2023-02-06T20:11:58.345Z,15.40
2023-02-06T20:14:25.905Z,13.00
2023-02-06T20:16:53.214Z,10.53
2023-02-06T20:19:22.349Z,13.20
2023-02-06T20:21:50.900Z,9.23
2023-02-06T20:24:20.819Z,12.43
2023-02-06T20:26:49.257Z,11.50
2023-02-06T20:29:26.803Z,10.60
2023-02-06T20:31:54.784Z,11.40
2023-02-06T20:34:22.328Z,12.23
2023-02-06T20:36:50.279Z,10.97
2023-02-06T20:39:17.747Z,10.77
2023-02-06T20:41:45.888Z,10.73
2023-02-06T20:44:13.721Z,13.10
2023-02-06T20:46:41.351Z,11.17
2023-02-06T20:49:13.114Z,10.93
2023-02-06T20:51:40.242Z,10.53
2023-02-06T20:54:07.413Z,11.93
2023-02-06T20:56:34.949Z,11.60
2023-02-06T20:59:02.150Z,12.10
2023-02-06T21:01:30.682Z,12.40
2023-02-06T21:03:59.249Z,12.40
2023-02-06T21:06:28.013Z,14.70
2023-02-06T21:08:59.966Z,12.87
2023-02-06T21:11:29.574Z,13.20
2023-02-06T21:13:57.788Z,12.07
2023-02-06T21:16:25.540Z,11.77
2023-02-06T21:18:52.732Z,13.20
2023-02-06T21:21:20.138Z,12.70
2023-02-06T21:23:47.980Z,11.80
2023-02-06T21:26:17.317Z,12.63
2023-02-06T21:28:44.833Z,12.33
2023-02-06T21:31:19.809Z,11.23
2023-02-06T21:33:47.703Z,10.20
2023-02-06T21:36:15.204Z,11.10
2023-02-06T21:38:42.994Z,10.30
2023-02-06T21:41:18.193Z,11.30
2023-02-06T21:43:45.885Z,12.87
2023-02-06T21:46:13.326Z,12.17
2023-02-06T21:48:41.154Z,11.17
2023-02-06T21:51:09.345Z,10.33
2023-02-06T21:53:36.647Z,10.80
2023-02-06T21:56:23.006Z,12.40
2023-02-06T21:58:50.584Z,8.97
2023-02-06T22:01:22.313Z,10.10
2023-02-06T22:03:49.562Z,11.20
2023-02-06T22:06:19.716Z,9.90
2023-02-06T22:08:48.303Z,10.80
2023-02-06T22:11:17.428Z,10.80
2023-02-06T22:13:44.914Z,10.03
2023-02-06T22:16:13.080Z,13.50
2023-02-06T22:18:40.423Z,11.97
2023-02-06T22:21:08.784Z,10.47
2023-02-06T22:23:35.950Z,11.17
2023-02-06T22:26:03.469Z,13.73
2023-02-06T22:28:31.574Z,15.17
2023-02-06T22:31:05.373Z,13.43
2023-02-06T22:33:32.655Z,13.87
2023-02-06T22:35:59.800Z,12.73
2023-02-06T22:38:26.997Z,13.37
2023-02-06T22:41:01.604Z,12.97
2023-02-06T22:43:33.248Z,11.60
2023-02-06T22:46:00.571Z,10.10
2023-02-06T22:48:27.821Z,11.90
2023-02-06T22:50:54.983Z,10.90
2023-02-06T22:53:31.966Z,11.57
2023-02-06T22:56:18.683Z,11.20
2023-02-06T22:58:45.847Z,12.87
2023-02-06T23:01:13.654Z,10.63
2023-02-06T23:03:40.869Z,10.70
2023-02-06T23:06:09.649Z,11.33
2023-02-06T23:08:37.176Z,10.90
2023-02-06T23:11:07.533Z,12.33
2023-02-06T23:13:34.692Z,11.03
2023-02-06T23:16:02.317Z,11.20
2023-02-06T23:18:29.689Z,10.87
2023-02-06T23:20:57.872Z,11.97
2023-02-06T23:23:25.013Z,9.70
2023-02-06T23:25:52.516Z,11.83
2023-02-06T23:28:23.350Z,12.23
2023-02-06T23:30:50.571Z,13.07
2023-02-06T23:33:18.119Z,13.13
2023-02-06T23:35:45.276Z,13.30
2023-02-06T23:38:12.416Z,12.63
2023-02-06T23:40:39.940Z,13.70
2023-02-06T23:43:07.561Z,15.67
2023-02-06T23:45:35.055Z,15.20
2023-02-06T23:48:02.261Z,14.40
2023-02-06T23:50:29.440Z,16.60
2023-02-06T23:52:56.612Z,14.70
2023-02-06T23:55:27.970Z,13.97
2023-02-06T23:57:55.314Z,15.90
